Time;durP1;ratioP1;P1;durP2;ratioP2;P2;SDS_P1;SDS_P2;PMS_P1;PMS_P2;Temp;Humidity;BMP_temperature;BMP_pressure;BME280_temperature;BME280_humidity;BME280_pressure;Samples;Min_cycle;Max_cycle;Signal;HPM_P1;HPM_P2
2021/03/14 00:05:32;;;;;;;3.30;1.73;;;;;;;3.96;68.40;97805.93;510971;1102;113974;-64
2021/03/14 00:15:39;;;;;;;1.80;1.30;;;;;;;3.72;68.37;97806.59;509517;1102;113650;-63
2021/03/14 00:25:46;;;;;;;3.77;1.90;;;;;;;3.47;68.19;97816.80;508852;1102;113713;-63
2021/03/14 00:35:50;;;;;;;2.93;1.60;;;;;;;3.38;68.28;97819.13;509702;1102;113635;-62
2021/03/14 00:45:53;;;;;;;3.17;1.37;;;;;;;3.25;69.08;97817.30;510390;1102;113595;-63
2021/03/14 00:56:08;;;;;;;3.35;1.40;;;;;;;3.13;69.76;97813.73;510280;1102;113745;-61
2021/03/14 01:06:12;;;;;;;3.70;2.30;;;;;;;2.98;69.80;97804.28;510590;1102;113633;-63
2021/03/14 01:16:15;;;;;;;5.33;1.50;;;;;;;2.90;70.05;97804.77;510000;1102;113713;-63
2021/03/14 01:26:27;;;;;;;3.73;1.90;;;;;;;2.88;69.99;97802.25;510318;1102;113817;-64
2021/03/14 01:36:31;;;;;;;3.70;1.60;;;;;;;2.74;70.16;97784.13;510654;1101;114172;-63
2021/03/14 01:46:34;;;;;;;3.20;1.40;;;;;;;2.76;70.75;97782.27;510643;1102;113817;-64
2021/03/14 01:56:51;;;;;;;3.10;1.50;;;;;;;2.68;70.45;97762.00;510796;1102;113713;-63
2021/03/14 02:06:54;;;;;;;2.45;2.05;;;;;;;2.72;70.80;97755.73;510671;1102;113676;-63
2021/03/14 02:16:59;;;;;;;1.93;1.30;;;;;;;2.87;70.68;97755.70;510999;1102;113582;-63
2021/03/14 02:27:16;;;;;;;3.37;2.23;;;;;;;3.00;71.02;97755.75;510826;1102;113661;-64
2021/03/14 02:37:20;;;;;;;;;;;;;;;3.05;70.67;97775.28;511036;1102;113735;-64
2021/03/14 02:47:28;;;;;;;2.40;2.00;;;;;;;3.10;70.54;97780.19;511129;1102;100945;-63
2021/03/14 02:57:40;;;;;;;2.95;2.05;;;;;;;3.15;70.33;97783.34;510812;1102;114118;-62
2021/03/14 03:07:47;;;;;;;1.77;1.60;;;;;;;3.03;69.78;97795.30;511179;1102;113544;-63
2021/03/14 03:17:51;;;;;;;3.10;1.70;;;;;;;3.09;70.42;97807.05;510758;1101;114056;-63
2021/03/14 03:27:59;;;;;;;4.70;1.70;;;;;;;3.08;70.42;97802.80;511052;1101;113584;-63
2021/03/14 03:38:03;;;;;;;1.83;1.60;;;;;;;3.04;70.09;97801.33;510658;1102;114593;-62
2021/03/14 03:48:14;;;;;;;1.87;1.53;;;;;;;2.98;70.48;97794.77;510257;1102;113664;-63
2021/03/14 03:58:27;;;;;;;3.03;1.77;;;;;;;2.92;70.50;97800.31;510622;1101;113571;-63
2021/03/14 04:08:32;;;;;;;2.55;1.77;;;;;;;2.85;70.58;97817.19;510450;1102;113814;-62
2021/03/14 04:18:36;;;;;;;2.83;2.23;;;;;;;2.67;70.69;97806.99;511201;1102;113572;-63
2021/03/14 04:28:47;;;;;;;3.80;2.00;;;;;;;2.51;70.97;97804.48;510926;1101;113804;-62
2021/03/14 04:38:50;;;;;;;5.37;2.03;;;;;;;2.43;71.68;97799.77;509349;1102;113974;-65
2021/03/14 04:48:55;;;;;;;5.97;2.37;;;;;;;2.36;71.79;97801.05;511063;1101;113598;-62
2021/03/14 04:59:12;;;;;;;3.50;2.23;;;;;;;2.33;71.80;97786.53;510745;1102;113906;-63
2021/03/14 05:09:18;;;;;;;8.03;3.35;;;;;;;2.32;72.06;97790.05;510939;1102;113638;-62
2021/03/14 05:19:24;;;;;;;9.40;3.77;;;;;;;2.42;71.79;97779.97;510978;1102;113591;-63
2021/03/14 05:29:37;;;;;;;5.70;2.90;;;;;;;2.63;71.88;97783.02;511183;1102;113576;-66
2021/03/14 05:39:40;;;;;;;6.35;2.62;;;;;;;2.97;71.65;97784.47;510860;1102;113640;-63
2021/03/14 05:49:43;;;;;;;5.33;3.20;;;;;;;3.41;71.26;97778.25;511094;1102;113622;-62
2021/03/14 05:59:55;;;;;;;6.07;2.77;;;;;;;5.33;69.63;97795.76;509156;1102;113855;-63
2021/03/14 06:10:02;;;;;;;6.47;2.87;;;;;;;5.06;67.80;97819.34;510476;1101;177013;-59
2021/03/14 06:20:30;;;;;;;5.53;3.03;;;;;;;5.50;67.07;97821.52;511161;1101;113581;-65
2021/03/14 06:30:35;;;;;;;2.57;1.83;;;;;;;6.83;65.53;97816.97;510904;1102;113618;-64
2021/03/14 06:40:38;;;;;;;3.77;2.13;;;;;;;10.00;61.73;97802.20;510840;1102;113948;-63
2021/03/14 06:50:44;;;;;;;2.17;1.67;;;;;;;14.19;57.99;97814.86;510872;1102;113994;-64
2021/03/14 07:01:09;;;;;;;4.90;3.13;;;;;;;17.49;51.52;97821.69;510707;1102;114024;-63
2021/03/14 07:11:32;;;;;;;2.13;1.47;;;;;;;18.44;45.90;97830.58;511034;1102;113999;-64
2021/03/14 07:21:36;;;;;;;3.30;2.00;;;;;;;20.45;43.48;97832.42;510586;1102;113949;-64
2021/03/14 07:31:42;;;;;;;3.17;2.17;;;;;;;23.04;40.02;97809.25;510898;1101;114430;-62
2021/03/14 07:41:50;;;;;;;2.80;1.77;;;;;;;25.26;37.20;97794.29;509296;1102;115662;-62
2021/03/14 07:51:56;;;;;;;2.17;1.60;;;;;;;24.92;33.27;97780.72;509176;1102;115186;-63
2021/03/14 08:02:30;;;;;;;3.63;1.50;;;;;;;25.74;31.40;97792.27;509534;1102;115213;-63
2021/03/14 08:12:38;;;;;;;3.67;1.40;;;;;;;25.38;30.36;97845.30;510653;1102;113924;-61
2021/03/14 08:22:49;;;;;;;2.30;0.95;;;;;;;24.54;28.74;97851.77;510909;1102;113937;-62
2021/03/14 08:33:38;;;;;;;6.37;2.03;;;;;;;21.92;29.42;97869.61;510908;1102;114068;-62
2021/03/14 08:43:47;;;;;;;3.20;1.40;;;;;;;16.78;31.20;97883.13;510662;1102;114379;-63
2021/03/14 08:53:50;;;;;;;3.13;2.83;;;;;;;12.12;36.49;97920.93;509382;1101;114666;-64
2021/03/14 09:03:53;;;;;;;2.67;2.40;;;;;;;10.31;40.01;97934.02;509687;1102;114706;-64
2021/03/14 09:13:56;;;;;;;3.67;1.60;;;;;;;10.96;41.30;97931.80;510780;1102;114243;-64
2021/03/14 09:23:59;;;;;;;4.47;1.83;;;;;;;11.44;40.23;97930.80;510728;1102;114071;-62
2021/03/14 09:34:03;;;;;;;2.75;2.10;;;;;;;11.39;40.20;97937.47;511024;1102;114610;-62
2021/03/14 09:44:15;;;;;;;2.50;1.40;;;;;;;10.42;41.39;97959.34;510653;1102;114373;-65
2021/03/14 09:54:19;;;;;;;2.20;1.85;;;;;;;9.17;42.85;97976.18;510822;1102;114684;-66
2021/03/14 10:04:24;;;;;;;4.25;1.90;;;;;;;8.23;44.87;97985.48;510360;1102;115324;-65
2021/03/14 10:14:28;;;;;;;3.33;1.77;;;;;;;7.80;46.01;98018.47;500535;1102;10003601;-65
2021/03/14 10:24:32;;;;;;;2.53;1.87;;;;;;;7.47;46.77;98012.28;510107;1102;115733;-64
2021/03/14 10:34:36;;;;;;;2.55;1.60;;;;;;;7.51;47.67;98016.34;510372;1102;113780;-64
2021/03/14 10:44:41;;;;;;;4.70;2.20;;;;;;;7.56;48.00;98029.87;510230;1102;113752;-63
2021/03/14 10:54:44;;;;;;;3.55;1.15;;;;;;;7.49;47.91;98044.34;511656;1102;113752;-64
2021/03/14 11:04:53;;;;;;;4.40;1.63;;;;;;;7.29;49.02;98051.92;510315;1102;116312;-65
2021/03/14 11:14:57;;;;;;;4.30;2.00;;;;;;;7.36;49.28;98047.06;509986;1101;115498;-64
2021/03/14 11:25:05;;;;;;;2.57;1.83;;;;;;;7.38;49.23;98048.59;510291;1102;113845;-64
2021/03/14 11:35:10;;;;;;;3.60;1.80;;;;;;;7.37;50.14;98049.54;510359;1102;113817;-64
2021/03/14 11:45:17;;;;;;;4.47;2.53;;;;;;;7.44;50.46;98078.63;510422;1102;114268;-64
2021/03/14 11:55:20;;;;;;;;;;;;;;;7.09;50.63;98080.34;510657;1102;113801;-64
2021/03/14 12:05:23;;;;;;;3.35;1.90;;;;;;;7.20;50.96;98082.13;509036;1101;101113;-66
2021/03/14 12:15:27;;;;;;;3.30;2.27;;;;;;;7.42;51.31;98085.75;510543;1102;115351;-66
2021/03/14 12:25:31;;;;;;;2.57;1.60;;;;;;;7.38;51.06;98081.72;509795;1102;114168;-67
2021/03/14 12:35:35;;;;;;;4.07;2.03;;;;;;;6.86;51.75;98092.45;510388;1102;114526;-66
2021/03/14 12:45:38;;;;;;;5.33;2.30;;;;;;;6.43;53.50;98112.87;510915;1102;115250;-66
2021/03/14 12:55:42;;;;;;;4.97;3.20;;;;;;;6.55;53.87;98118.16;510371;1102;114163;-66
2021/03/14 13:05:48;;;;;;;3.57;2.20;;;;;;;7.14;53.15;98125.19;509982;1102;114186;-65
2021/03/14 13:15:52;;;;;;;3.90;2.97;;;;;;;7.43;53.35;98123.98;509798;1102;114701;-65
2021/03/14 13:25:56;;;;;;;2.50;2.20;;;;;;;7.25;53.48;98131.41;511047;1102;113930;-66
2021/03/14 13:36:00;;;;;;;4.40;3.53;;;;;;;6.55;55.67;98162.48;510207;1102;115388;-65
2021/03/14 13:46:05;;;;;;;3.33;2.67;;;;;;;5.94;58.18;98173.55;510444;1102;114316;-66
2021/03/14 13:56:09;;;;;;;8.37;3.00;;;;;;;6.10;58.42;98165.56;510167;1102;115361;-67
2021/03/14 14:06:12;;;;;;;5.57;3.23;;;;;;;6.04;58.41;98182.45;509833;1102;114135;-65
2021/03/14 14:16:19;;;;;;;3.20;1.77;;;;;;;5.69;60.10;98209.06;510241;1102;114332;-65
2021/03/14 14:26:22;;;;;;;4.00;2.43;;;;;;;5.67;60.60;98218.75;508965;1102;115094;-65
2021/03/14 14:36:26;;;;;;;2.50;2.30;;;;;;;5.75;61.49;98229.51;509321;1102;113862;-66
2021/03/14 14:46:30;;;;;;;4.03;3.23;;;;;;;5.44;62.18;98249.73;510304;1102;114723;-66
2021/03/14 14:56:34;;;;;;;6.53;4.07;;;;;;;5.00;63.58;98273.27;510251;1101;115485;-66
2021/03/14 15:06:44;;;;;;;6.03;4.63;;;;;;;4.75;64.37;98273.96;510119;1102;114656;-65
2021/03/14 15:16:49;;;;;;;3.20;2.90;;;;;;;4.79;63.99;98284.98;509003;1102;113781;-65
2021/03/14 15:26:53;;;;;;;3.87;2.90;;;;;;;4.87;63.79;98306.17;510190;1102;113897;-67
2021/03/14 15:37:02;;;;;;;4.50;3.50;;;;;;;4.72;64.19;98318.34;510382;1102;113931;-65
2021/03/14 15:47:06;;;;;;;6.07;4.00;;;;;;;4.63;64.42;98324.94;510512;1102;114180;-66
2021/03/14 15:57:13;;;;;;;4.15;3.00;;;;;;;4.52;64.35;98314.34;510133;1102;113704;-67
2021/03/14 16:07:32;;;;;;;4.30;3.17;;;;;;;4.43;65.07;98332.15;510088;1102;114251;-66
2021/03/14 16:17:36;;;;;;;4.10;3.70;;;;;;;4.38;64.97;98356.73;510223;1101;114796;-66
2021/03/14 16:27:42;;;;;;;4.53;3.30;;;;;;;4.30;64.89;98358.04;510268;1102;114089;-66
2021/03/14 16:37:54;;;;;;;4.53;3.33;;;;;;;4.22;64.90;98349.02;510225;1102;114128;-66
2021/03/14 16:47:57;;;;;;;3.60;3.17;;;;;;;4.16;65.39;98371.00;510043;1102;113776;-67
2021/03/14 16:58:01;;;;;;;7.17;4.97;;;;;;;4.09;66.14;98382.66;510440;1102;113816;-66
2021/03/14 17:08:18;;;;;;;7.40;5.35;;;;;;;4.01;66.73;98391.70;510147;1101;114142;-66
2021/03/14 17:18:21;;;;;;;7.73;5.10;;;;;;;4.00;66.93;98404.80;509989;1101;114545;-67
2021/03/14 17:28:26;;;;;;;12.07;7.27;;;;;;;4.00;66.31;98407.39;508667;1102;114197;-67
2021/03/14 17:38:38;;;;;;;10.30;7.20;;;;;;;3.87;67.06;98426.27;509998;1102;113890;-66
2021/03/14 17:48:41;;;;;;;16.95;9.60;;;;;;;3.68;67.14;98426.41;510213;1102;114443;-65
2021/03/14 17:58:45;;;;;;;11.03;7.13;;;;;;;3.78;67.67;98463.94;510359;1102;114094;-66
2021/03/14 18:08:57;;;;;;;8.57;7.20;;;;;;;3.68;68.17;98461.94;510162;1102;115373;-65
2021/03/14 18:19:01;;;;;;;6.17;5.00;;;;;;;3.67;68.09;98465.45;510621;1102;114326;-66
2021/03/14 18:29:07;;;;;;;5.53;4.70;;;;;;;3.73;69.06;98485.88;509855;1102;113845;-69
2021/03/14 18:39:19;;;;;;;5.70;4.73;;;;;;;3.64;69.75;98495.00;510355;1101;114141;-68
2021/03/14 18:49:25;;;;;;;7.45;5.20;;;;;;;3.77;69.97;98506.41;510422;1102;113791;-69
2021/03/14 18:59:29;;;;;;;7.60;4.43;;;;;;;3.73;69.81;98525.67;510543;1102;113952;-69
2021/03/14 19:09:41;;;;;;;8.63;5.90;;;;;;;3.40;70.36;98539.49;510461;1102;114101;-68
2021/03/14 19:19:48;;;;;;;9.00;6.07;;;;;;;3.23;71.47;98542.95;510455;1102;113824;-64
2021/03/14 19:29:51;;;;;;;11.00;7.70;;;;;;;3.05;71.54;98555.91;509777;1102;114824;-61
2021/03/14 19:40:07;;;;;;;9.63;7.33;;;;;;;3.03;72.20;98572.48;510208;1102;114487;-62
2021/03/14 19:50:13;;;;;;;8.50;6.27;;;;;;;3.02;72.23;98574.23;510134;1102;113917;-63
2021/03/14 20:00:21;;;;;;;9.27;5.27;;;;;;;2.99;72.06;98578.72;508461;1102;113755;-61
2021/03/14 20:10:29;;;;;;;6.27;4.40;;;;;;;3.16;72.16;98602.09;510017;1102;114163;-61
2021/03/14 20:20:36;;;;;;;7.10;4.60;;;;;;;3.25;71.43;98613.76;510365;1101;114196;-63
2021/03/14 20:30:41;;;;;;;5.60;4.00;;;;;;;3.14;71.50;98609.11;508398;1102;113767;-63
2021/03/14 20:40:52;;;;;;;6.93;4.70;;;;;;;2.59;71.50;98607.40;510224;1102;115125;-62
2021/03/14 20:50:59;;;;;;;7.10;5.13;;;;;;;2.10;71.81;98607.02;509855;1102;114566;-62
2021/03/14 21:01:06;;;;;;;9.90;6.30;;;;;;;1.81;72.78;98614.32;509928;1102;114372;-62
2021/03/14 21:11:19;;;;;;;7.03;4.80;;;;;;;1.67;72.63;98616.67;509955;1102;114388;-62
2021/03/14 21:21:23;;;;;;;5.30;4.30;;;;;;;1.44;73.12;98618.50;510218;1102;115155;-61
2021/03/14 21:31:26;;;;;;;9.80;5.13;;;;;;;1.11;72.89;98625.02;515004;1102;114540;-60
2021/03/14 21:41:38;;;;;;;13.93;6.87;;;;;;;0.72;73.56;98633.44;510301;1102;113853;-62
2021/03/14 21:51:41;;;;;;;13.67;8.17;;;;;;;0.34;73.71;98628.02;510714;1102;114921;-61
2021/03/14 22:01:47;;;;;;;14.30;8.77;;;;;;;0.10;74.22;98636.59;510228;1101;114034;-62
2021/03/14 22:11:59;;;;;;;12.50;8.87;;;;;;;-0.10;74.58;98634.73;510525;1102;114457;-61
2021/03/14 22:22:06;;;;;;;17.33;10.43;;;;;;;-0.39;75.42;98640.92;510608;1101;114575;-62
2021/03/14 22:32:10;;;;;;;12.67;7.60;;;;;;;-0.65;75.49;98640.08;510598;1102;114737;-60
2021/03/14 22:42:24;;;;;;;13.47;8.87;;;;;;;-0.87;76.13;98630.47;510661;1102;114608;-61
2021/03/14 22:52:30;;;;;;;14.53;7.53;;;;;;;-1.08;76.24;98621.70;510533;1102;114082;-61
2021/03/14 23:02:34;;;;;;;11.68;7.50;;;;;;;-1.22;76.72;98622.14;510525;1102;114482;-60
2021/03/14 23:12:52;;;;;;;13.80;8.83;;;;;;;-1.35;77.24;98619.09;510548;1102;114145;-60
2021/03/14 23:22:55;;;;;;;16.15;9.05;;;;;;;-1.54;77.33;98622.25;510410;1102;114958;-62
2021/03/14 23:33:05;;;;;;;10.83;7.40;;;;;;;-1.74;76.71;98628.81;510322;1102;114188;-61
2021/03/14 23:43:11;;;;;;;16.15;9.90;;;;;;;-1.93;76.85;98613.08;510595;1102;114295;-61
2021/03/14 23:53:19;;;;;;;17.80;10.20;;;;;;;-2.08;77.07;98605.77;510125;1102;114219;-61
